Selfridge, Michigan
Current Conditions -  °F | °C
As of 3:58 AM on Friday 31 Oct 2014 (Local Time) from KMTC Reporting Station
Overcast Overcast  
Wind Chill: 42°   Ceiling: 5000
Heat Index: 46°   Visibility: 10mi
Dew Point: 37°   Wind: 7mph
Humidity: 73%   Direction: 220°SW
Pressure: 29.92"   Gusts: NA
Location:  42.5826°N, 82.8345°W
Report Text: KMTC 310758Z AUTO 22006KT 10SM OVC050 08/03 A2992 RMK AO2 SLP138 T00760030
Loading
Personal Weather Stations






























Interactive Weather Map
Tropical Storm Tracking
New forecast layout! Learn more

10-Day Weather Forecast

Advertisements
Track Severe Weather on mobile